Accueil
METAR-TAF:

METAR-TAF

Aéroports :

Aéroport Rouen Vallée de Seine

Rouen, France

latitude: 49-23N, longitude: 001-11E, altitude: 157 m

Observation

Le bulletin a été fait il y a 33 minutes, à 20:00 UTC
Vent 7 kt de nord
Température 18°C
Humidité 64%
Pression 1017 hPa
Visibilité 10 km ou plus
pas de nuages en-dessous de 1500 mètres et pas de cumulonimbus.

METAR: LFOP 042000Z AUTO 36007KT CAVOK 18/11 Q1017 NOSIG

Heure: 22:33 (20:33 UTC)

Prévision

Le bulletin a été fait il y a 3 heures et 33 minutes, à 17:00 UTC
Prévision valable du 04 à 18 UTC au 05 à 18 UTC
Vent 2 kt de direction variable
Visibilité 10 km ou plus
pas de nuages en-dessous de 1500 mètres et pas de cumulonimbus.
Evoluant progressivement
du 05 à 08 UTC au 05 à 11 UTC
Vent 10 kt de sud/sud-ouest

TAF: LFOP 041700Z 0418/0518 VRB02KT CAVOK BECMG 0508/0511 20010KT

Observations et prévisions météorologiques de plus de 4000 aéroports (messages METAR et TAF).

Les stations disponibles sont représentées par des disques jaunes et rouges sur la carte.

Passer la souris dessus pour voir le nom de la station.

Cliquer dessus pour voir les observations et prévisions météorologiques.

Pour changer de carte: cliquez sur les boutons verts avec une croix noire pour zoomer, sur le bouton vert avec un tiret pour effectuer un zoom arrière, ou sur les flèches vertes pour les cartes adjacentes.


METAR-TAF: